sensor_id;sensor_type;location;lat;lon;timestamp;temperature;humidity
38514;DHT22;24282;48.400;10.808;2024-01-11T00:00:30;-3274.10;82.80
38514;DHT22;24282;48.400;10.808;2024-01-11T00:02:56;-3274.00;82.70
38514;DHT22;24282;48.400;10.808;2024-01-11T00:05:21;-3274.00;82.70
38514;DHT22;24282;48.400;10.808;2024-01-11T00:07:48;-3274.00;82.70
38514;DHT22;24282;48.400;10.808;2024-01-11T00:10:15;-3274.00;82.70
38514;DHT22;24282;48.400;10.808;2024-01-11T00:12:41;-3274.10;82.50
38514;DHT22;24282;48.400;10.808;2024-01-11T00:15:07;-3274.00;82.50
38514;DHT22;24282;48.400;10.808;2024-01-11T00:17:33;-3274.00;82.60
38514;DHT22;24282;48.400;10.808;2024-01-11T00:19:59;-3274.00;82.60
38514;DHT22;24282;48.400;10.808;2024-01-11T00:22:24;-3274.00;82.50
38514;DHT22;24282;48.400;10.808;2024-01-11T00:24:50;-3274.00;82.50
38514;DHT22;24282;48.400;10.808;2024-01-11T00:27:16;-3274.10;82.30
38514;DHT22;24282;48.400;10.808;2024-01-11T00:29:41;-3274.00;82.30
38514;DHT22;24282;48.400;10.808;2024-01-11T00:32:07;-3274.00;82.30
38514;DHT22;24282;48.400;10.808;2024-01-11T00:34:33;-3274.00;82.20
38514;DHT22;24282;48.400;10.808;2024-01-11T00:36:58;-3274.00;82.10
38514;DHT22;24282;48.400;10.808;2024-01-11T00:39:24;-3274.00;82.30
38514;DHT22;24282;48.400;10.808;2024-01-11T00:41:50;-3274.00;82.20
38514;DHT22;24282;48.400;10.808;2024-01-11T00:44:16;-3274.00;82.10
38514;DHT22;24282;48.400;10.808;2024-01-11T00:46:42;-3274.00;82.00
38514;DHT22;24282;48.400;10.808;2024-01-11T00:49:08;-3274.00;81.70
38514;DHT22;24282;48.400;10.808;2024-01-11T00:51:34;-3274.00;81.80
38514;DHT22;24282;48.400;10.808;2024-01-11T00:53:59;-3273.90;81.90
38514;DHT22;24282;48.400;10.808;2024-01-11T00:56:25;-3273.90;82.00
38514;DHT22;24282;48.400;10.808;2024-01-11T00:58:52;-3273.90;82.10
38514;DHT22;24282;48.400;10.808;2024-01-11T01:01:17;-3274.00;81.80
38514;DHT22;24282;48.400;10.808;2024-01-11T01:03:43;-3273.90;81.80
38514;DHT22;24282;48.400;10.808;2024-01-11T01:06:09;-3273.90;81.80
38514;DHT22;24282;48.400;10.808;2024-01-11T01:08:34;-3273.90;81.80
38514;DHT22;24282;48.400;10.808;2024-01-11T01:11:00;-3273.90;82.00
38514;DHT22;24282;48.400;10.808;2024-01-11T01:13:26;-3273.90;81.80
38514;DHT22;24282;48.400;10.808;2024-01-11T01:15:52;-3273.90;81.90
38514;DHT22;24282;48.400;10.808;2024-01-11T01:18:17;-3273.90;82.00
38514;DHT22;24282;48.400;10.808;2024-01-11T01:20:43;-3273.90;82.00
38514;DHT22;24282;48.400;10.808;2024-01-11T01:23:09;-3273.90;81.90
38514;DHT22;24282;48.400;10.808;2024-01-11T01:25:34;-3273.90;81.80
38514;DHT22;24282;48.400;10.808;2024-01-11T01:28:00;-3273.90;81.80
38514;DHT22;24282;48.400;10.808;2024-01-11T01:30:27;-3273.90;81.60
38514;DHT22;24282;48.400;10.808;2024-01-11T01:32:53;-3274.00;81.70
38514;DHT22;24282;48.400;10.808;2024-01-11T01:35:19;-3273.90;81.80
38514;DHT22;24282;48.400;10.808;2024-01-11T01:37:45;-3273.90;81.90
38514;DHT22;24282;48.400;10.808;2024-01-11T01:40:14;-3273.90;81.80
38514;DHT22;24282;48.400;10.808;2024-01-11T01:42:43;-3273.90;81.90
38514;DHT22;24282;48.400;10.808;2024-01-11T01:45:12;-3273.90;81.70
38514;DHT22;24282;48.400;10.808;2024-01-11T01:47:40;-3273.90;81.50
38514;DHT22;24282;48.400;10.808;2024-01-11T01:50:07;-3273.90;81.50
38514;DHT22;24282;48.400;10.808;2024-01-11T01:52:33;-3273.90;81.40
38514;DHT22;24282;48.400;10.808;2024-01-11T01:55:01;-3273.80;81.50
38514;DHT22;24282;48.400;10.808;2024-01-11T01:57:28;-3273.80;81.70
38514;DHT22;24282;48.400;10.808;2024-01-11T01:59:55;-3273.90;81.40
38514;DHT22;24282;48.400;10.808;2024-01-11T02:02:21;-3273.80;81.30
38514;DHT22;24282;48.400;10.808;2024-01-11T02:04:47;-3273.80;81.30
38514;DHT22;24282;48.400;10.808;2024-01-11T02:07:13;-3273.80;81.40
38514;DHT22;24282;48.400;10.808;2024-01-11T02:09:40;-3273.80;81.50
38514;DHT22;24282;48.400;10.808;2024-01-11T02:12:06;-3273.80;81.40
38514;DHT22;24282;48.400;10.808;2024-01-11T02:14:37;-3273.80;81.40
38514;DHT22;24282;48.400;10.808;2024-01-11T02:17:03;-3273.90;81.30
38514;DHT22;24282;48.400;10.808;2024-01-11T02:19:29;-3273.80;81.20
38514;DHT22;24282;48.400;10.808;2024-01-11T02:21:55;-3273.80;81.40
38514;DHT22;24282;48.400;10.808;2024-01-11T02:24:22;-3273.80;81.20
38514;DHT22;24282;48.400;10.808;2024-01-11T02:27:01;-3273.80;81.30
38514;DHT22;24282;48.400;10.808;2024-01-11T02:29:28;-3273.80;81.40
38514;DHT22;24282;48.400;10.808;2024-01-11T02:31:55;-3273.80;81.50
38514;DHT22;24282;48.400;10.808;2024-01-11T02:34:23;-3273.80;81.60
38514;DHT22;24282;48.400;10.808;2024-01-11T02:36:49;-3273.90;81.40
38514;DHT22;24282;48.400;10.808;2024-01-11T02:39:16;-3273.80;81.40
38514;DHT22;24282;48.400;10.808;2024-01-11T02:41:44;-3273.80;81.40
38514;DHT22;24282;48.400;10.808;2024-01-11T02:44:10;-3273.80;81.40
38514;DHT22;24282;48.400;10.808;2024-01-11T02:46:36;-3273.80;81.50
38514;DHT22;24282;48.400;10.808;2024-01-11T02:49:02;-3273.70;81.50
38514;DHT22;24282;48.400;10.808;2024-01-11T02:51:28;-3273.70;81.60
38514;DHT22;24282;48.400;10.808;2024-01-11T02:53:54;-3273.70;81.70
38514;DHT22;24282;48.400;10.808;2024-01-11T02:56:19;-3273.70;81.70
38514;DHT22;24282;48.400;10.808;2024-01-11T02:58:45;-3273.70;81.60
38514;DHT22;24282;48.400;10.808;2024-01-11T03:01:11;-3273.80;81.30
38514;DHT22;24282;48.400;10.808;2024-01-11T03:03:36;-3273.70;81.10
38514;DHT22;24282;48.400;10.808;2024-01-11T03:06:03;-3273.80;81.10
38514;DHT22;24282;48.400;10.808;2024-01-11T03:08:28;-3273.80;80.90
38514;DHT22;24282;48.400;10.808;2024-01-11T03:10:54;-3273.70;80.90
38514;DHT22;24282;48.400;10.808;2024-01-11T03:13:20;-3273.80;80.80
38514;DHT22;24282;48.400;10.808;2024-01-11T03:15:46;-3273.70;80.90
38514;DHT22;24282;48.400;10.808;2024-01-11T03:18:12;-3273.70;80.90
38514;DHT22;24282;48.400;10.808;2024-01-11T03:20:37;-3273.60;81.00
38514;DHT22;24282;48.400;10.808;2024-01-11T03:23:03;-3273.70;81.10
38514;DHT22;24282;48.400;10.808;2024-01-11T03:25:29;-3273.70;81.10
38514;DHT22;24282;48.400;10.808;2024-01-11T03:27:55;-3273.60;81.20
38514;DHT22;24282;48.400;10.808;2024-01-11T03:30:21;-3273.70;81.10
38514;DHT22;24282;48.400;10.808;2024-01-11T03:32:47;-3273.70;81.00
38514;DHT22;24282;48.400;10.808;2024-01-11T03:35:12;-3273.70;81.00
38514;DHT22;24282;48.400;10.808;2024-01-11T03:37:38;-3273.70;80.90
38514;DHT22;24282;48.400;10.808;2024-01-11T03:40:04;-3273.70;80.90
38514;DHT22;24282;48.400;10.808;2024-01-11T03:42:30;-3273.70;80.90
38514;DHT22;24282;48.400;10.808;2024-01-11T03:44:56;-3273.70;81.00
38514;DHT22;24282;48.400;10.808;2024-01-11T03:47:22;-3273.70;80.80
38514;DHT22;24282;48.400;10.808;2024-01-11T03:49:47;-3273.60;80.70
38514;DHT22;24282;48.400;10.808;2024-01-11T03:52:13;-3273.70;80.80
38514;DHT22;24282;48.400;10.808;2024-01-11T03:54:39;-3273.70;80.90
38514;DHT22;24282;48.400;10.808;2024-01-11T03:57:05;-3273.60;80.90
38514;DHT22;24282;48.400;10.808;2024-01-11T03:59:31;-3273.60;80.90
38514;DHT22;24282;48.400;10.808;2024-01-11T04:01:58;-3273.60;80.90
38514;DHT22;24282;48.400;10.808;2024-01-11T04:04:23;-3273.50;81.00
38514;DHT22;24282;48.400;10.808;2024-01-11T04:06:49;-3273.50;81.00
38514;DHT22;24282;48.400;10.808;2024-01-11T04:09:15;-3273.50;81.10
38514;DHT22;24282;48.400;10.808;2024-01-11T04:11:41;-3273.50;81.00
38514;DHT22;24282;48.400;10.808;2024-01-11T04:14:06;-3273.50;80.90
38514;DHT22;24282;48.400;10.808;2024-01-11T04:16:32;-3273.40;81.10
38514;DHT22;24282;48.400;10.808;2024-01-11T04:18:58;-3273.50;81.10
38514;DHT22;24282;48.400;10.808;2024-01-11T04:21:25;-3273.40;81.10
38514;DHT22;24282;48.400;10.808;2024-01-11T04:23:55;-3273.50;81.20
38514;DHT22;24282;48.400;10.808;2024-01-11T04:26:21;-3273.50;81.20
38514;DHT22;24282;48.400;10.808;2024-01-11T04:28:47;-3273.50;81.10
38514;DHT22;24282;48.400;10.808;2024-01-11T04:31:14;-3273.50;81.10
38514;DHT22;24282;48.400;10.808;2024-01-11T04:33:41;-3273.60;81.00
38514;DHT22;24282;48.400;10.808;2024-01-11T04:36:11;-3273.60;80.90
38514;DHT22;24282;48.400;10.808;2024-01-11T04:38:36;-3273.60;80.90
38514;DHT22;24282;48.400;10.808;2024-01-11T04:41:09;-3273.50;81.10
38514;DHT22;24282;48.400;10.808;2024-01-11T04:43:39;-3273.60;81.10
38514;DHT22;24282;48.400;10.808;2024-01-11T04:46:15;-3273.50;81.20
38514;DHT22;24282;48.400;10.808;2024-01-11T04:48:41;-3273.50;80.90
38514;DHT22;24282;48.400;10.808;2024-01-11T04:51:09;-3273.50;80.90
38514;DHT22;24282;48.400;10.808;2024-01-11T04:53:42;-3273.50;80.90
38514;DHT22;24282;48.400;10.808;2024-01-11T04:56:10;-3273.50;80.90
38514;DHT22;24282;48.400;10.808;2024-01-11T04:58:39;-3273.40;80.90
38514;DHT22;24282;48.400;10.808;2024-01-11T05:01:06;-3273.50;81.10
38514;DHT22;24282;48.400;10.808;2024-01-11T05:03:32;-3273.40;81.10
38514;DHT22;24282;48.400;10.808;2024-01-11T05:05:58;-3273.40;81.30
38514;DHT22;24282;48.400;10.808;2024-01-11T05:08:25;-3273.40;81.10
38514;DHT22;24282;48.400;10.808;2024-01-11T05:10:51;-3273.40;81.10
38514;DHT22;24282;48.400;10.808;2024-01-11T05:13:17;-3273.40;81.20
38514;DHT22;24282;48.400;10.808;2024-01-11T05:15:44;-3273.40;81.40
38514;DHT22;24282;48.400;10.808;2024-01-11T05:18:09;-3273.40;81.40
38514;DHT22;24282;48.400;10.808;2024-01-11T05:20:36;-3273.50;81.20
38514;DHT22;24282;48.400;10.808;2024-01-11T05:23:02;-3273.50;81.10
38514;DHT22;24282;48.400;10.808;2024-01-11T05:25:28;-3273.50;81.10
38514;DHT22;24282;48.400;10.808;2024-01-11T05:27:53;-3273.40;81.10
38514;DHT22;24282;48.400;10.808;2024-01-11T05:30:19;-3273.50;81.10
38514;DHT22;24282;48.400;10.808;2024-01-11T05:32:45;-3273.50;81.10
38514;DHT22;24282;48.400;10.808;2024-01-11T05:35:10;-3273.40;81.10
38514;DHT22;24282;48.400;10.808;2024-01-11T05:37:36;-3273.50;81.20
38514;DHT22;24282;48.400;10.808;2024-01-11T05:40:02;-3273.40;81.20
38514;DHT22;24282;48.400;10.808;2024-01-11T05:42:28;-3273.40;81.30
38514;DHT22;24282;48.400;10.808;2024-01-11T05:44:54;-3273.30;81.30
38514;DHT22;24282;48.400;10.808;2024-01-11T05:47:20;-3273.30;81.40
38514;DHT22;24282;48.400;10.808;2024-01-11T05:49:45;-3273.30;81.40
38514;DHT22;24282;48.400;10.808;2024-01-11T05:52:11;-3273.20;81.50
38514;DHT22;24282;48.400;10.808;2024-01-11T05:54:37;-3273.20;81.60
38514;DHT22;24282;48.400;10.808;2024-01-11T05:57:03;-3273.20;81.70
38514;DHT22;24282;48.400;10.808;2024-01-11T05:59:28;-3273.20;81.80
38514;DHT22;24282;48.400;10.808;2024-01-11T06:01:54;-3273.20;82.00
38514;DHT22;24282;48.400;10.808;2024-01-11T06:04:20;-3273.30;82.30
38514;DHT22;24282;48.400;10.808;2024-01-11T06:06:46;-3273.40;82.30
38514;DHT22;24282;48.400;10.808;2024-01-11T06:09:11;-3273.40;81.90
38514;DHT22;24282;48.400;10.808;2024-01-11T06:11:37;-3273.40;81.70
38514;DHT22;24282;48.400;10.808;2024-01-11T06:14:03;-3273.50;81.70
38514;DHT22;24282;48.400;10.808;2024-01-11T06:16:28;-3273.50;81.50
38514;DHT22;24282;48.400;10.808;2024-01-11T06:18:54;-3273.40;81.50
38514;DHT22;24282;48.400;10.808;2024-01-11T06:21:20;-3273.40;81.60
38514;DHT22;24282;48.400;10.808;2024-01-11T06:23:46;-3273.40;81.50
38514;DHT22;24282;48.400;10.808;2024-01-11T06:26:13;-3273.40;81.30
38514;DHT22;24282;48.400;10.808;2024-01-11T06:28:38;-3273.40;81.30
38514;DHT22;24282;48.400;10.808;2024-01-11T06:31:04;-3273.40;81.00
38514;DHT22;24282;48.400;10.808;2024-01-11T06:33:30;-3273.40;80.90
38514;DHT22;24282;48.400;10.808;2024-01-11T06:35:55;-3273.40;80.90
38514;DHT22;24282;48.400;10.808;2024-01-11T06:38:21;-3273.40;80.90
38514;DHT22;24282;48.400;10.808;2024-01-11T06:40:48;-3273.40;80.50
38514;DHT22;24282;48.400;10.808;2024-01-11T06:43:14;-3273.40;80.30
38514;DHT22;24282;48.400;10.808;2024-01-11T06:45:42;-3273.30;80.40
38514;DHT22;24282;48.400;10.808;2024-01-11T06:48:08;-3273.30;80.50
38514;DHT22;24282;48.400;10.808;2024-01-11T06:50:34;-3273.20;80.60
38514;DHT22;24282;48.400;10.808;2024-01-11T06:53:00;-3273.20;80.60
38514;DHT22;24282;48.400;10.808;2024-01-11T06:55:26;-3273.20;80.20
38514;DHT22;24282;48.400;10.808;2024-01-11T06:57:52;-3273.20;80.20
38514;DHT22;24282;48.400;10.808;2024-01-11T07:00:18;-3273.20;79.90
38514;DHT22;24282;48.400;10.808;2024-01-11T07:02:44;-3273.10;79.70
38514;DHT22;24282;48.400;10.808;2024-01-11T07:05:10;-3273.20;79.20
38514;DHT22;24282;48.400;10.808;2024-01-11T07:07:36;-3273.10;79.30
38514;DHT22;24282;48.400;10.808;2024-01-11T07:10:01;-3273.10;79.10
38514;DHT22;24282;48.400;10.808;2024-01-11T07:12:27;-3273.10;78.90
38514;DHT22;24282;48.400;10.808;2024-01-11T07:14:53;-3273.10;78.90
38514;DHT22;24282;48.400;10.808;2024-01-11T07:17:18;-3273.00;79.00
38514;DHT22;24282;48.400;10.808;2024-01-11T07:19:44;-3273.10;79.00
38514;DHT22;24282;48.400;10.808;2024-01-11T07:22:10;-3273.00;78.90
38514;DHT22;24282;48.400;10.808;2024-01-11T07:24:36;-3273.00;78.90
38514;DHT22;24282;48.400;10.808;2024-01-11T07:27:05;-3273.00;79.00
38514;DHT22;24282;48.400;10.808;2024-01-11T07:29:32;-3273.00;79.10
38514;DHT22;24282;48.400;10.808;2024-01-11T07:31:58;-3273.00;79.30
38514;DHT22;24282;48.400;10.808;2024-01-11T07:34:24;-3273.00;79.40
38514;DHT22;24282;48.400;10.808;2024-01-11T07:36:51;-3273.00;79.50
38514;DHT22;24282;48.400;10.808;2024-01-11T07:39:17;-3272.90;79.40
38514;DHT22;24282;48.400;10.808;2024-01-11T07:41:42;-3272.90;79.40
38514;DHT22;24282;48.400;10.808;2024-01-11T07:44:08;-3272.90;79.60
38514;DHT22;24282;48.400;10.808;2024-01-11T07:46:34;-3272.90;79.90
38514;DHT22;24282;48.400;10.808;2024-01-11T07:49:00;-3272.90;80.00
38514;DHT22;24282;48.400;10.808;2024-01-11T07:51:25;-3272.90;80.00
38514;DHT22;24282;48.400;10.808;2024-01-11T07:53:52;-3272.90;80.20
38514;DHT22;24282;48.400;10.808;2024-01-11T07:56:17;-3273.00;80.40
38514;DHT22;24282;48.400;10.808;2024-01-11T07:58:43;-3273.00;80.30
38514;DHT22;24282;48.400;10.808;2024-01-11T08:01:09;-3273.10;80.30
38514;DHT22;24282;48.400;10.808;2024-01-11T08:03:35;-3273.10;80.00
38514;DHT22;24282;48.400;10.808;2024-01-11T08:06:01;-3273.10;79.90
38514;DHT22;24282;48.400;10.808;2024-01-11T08:08:27;-3273.20;80.00
38514;DHT22;24282;48.400;10.808;2024-01-11T08:10:53;-3273.20;80.00
38514;DHT22;24282;48.400;10.808;2024-01-11T08:13:19;-3273.10;79.90
38514;DHT22;24282;48.400;10.808;2024-01-11T08:15:47;-3273.20;79.60
38514;DHT22;24282;48.400;10.808;2024-01-11T08:18:12;-3273.10;79.50
38514;DHT22;24282;48.400;10.808;2024-01-11T08:20:39;-3273.00;79.60
38514;DHT22;24282;48.400;10.808;2024-01-11T08:23:05;-3273.10;79.70
38514;DHT22;24282;48.400;10.808;2024-01-11T08:25:32;-3273.20;79.50
38514;DHT22;24282;48.400;10.808;2024-01-11T08:27:57;-3273.20;79.50
38514;DHT22;24282;48.400;10.808;2024-01-11T08:30:23;-3273.20;79.40
38514;DHT22;24282;48.400;10.808;2024-01-11T08:32:49;-3273.20;79.40
38514;DHT22;24282;48.400;10.808;2024-01-11T08:35:14;-3273.20;79.40
38514;DHT22;24282;48.400;10.808;2024-01-11T08:37:41;-3273.20;79.30
38514;DHT22;24282;48.400;10.808;2024-01-11T08:40:07;-3273.20;79.20
38514;DHT22;24282;48.400;10.808;2024-01-11T08:42:34;-3273.20;79.40
38514;DHT22;24282;48.400;10.808;2024-01-11T08:45:00;-3273.20;79.50
38514;DHT22;24282;48.400;10.808;2024-01-11T08:47:32;-3273.20;79.40
38514;DHT22;24282;48.400;10.808;2024-01-11T08:49:58;-3273.20;79.20
38514;DHT22;24282;48.400;10.808;2024-01-11T08:52:24;-3273.20;79.20
38514;DHT22;24282;48.400;10.808;2024-01-11T08:54:50;-3273.20;79.30
38514;DHT22;24282;48.400;10.808;2024-01-11T08:57:15;-3273.20;79.40
38514;DHT22;24282;48.400;10.808;2024-01-11T08:59:42;-3273.20;79.70
38514;DHT22;24282;48.400;10.808;2024-01-11T09:02:08;-3273.20;79.60
38514;DHT22;24282;48.400;10.808;2024-01-11T09:04:34;-3273.20;79.90
38514;DHT22;24282;48.400;10.808;2024-01-11T09:07:00;-3273.20;79.70
38514;DHT22;24282;48.400;10.808;2024-01-11T09:09:25;-3273.30;79.60
38514;DHT22;24282;48.400;10.808;2024-01-11T09:11:51;-3273.20;79.60
38514;DHT22;24282;48.400;10.808;2024-01-11T09:14:17;-3273.30;79.50
38514;DHT22;24282;48.400;10.808;2024-01-11T09:16:43;-3273.30;79.70
38514;DHT22;24282;48.400;10.808;2024-01-11T09:19:10;-3273.40;79.70
38514;DHT22;24282;48.400;10.808;2024-01-11T09:21:36;-3273.40;79.70
38514;DHT22;24282;48.400;10.808;2024-01-11T09:24:02;-3273.40;79.60
38514;DHT22;24282;48.400;10.808;2024-01-11T09:26:28;-3273.40;79.70
38514;DHT22;24282;48.400;10.808;2024-01-11T09:28:53;-3273.40;79.60
38514;DHT22;24282;48.400;10.808;2024-01-11T09:31:19;-3273.40;79.60
38514;DHT22;24282;48.400;10.808;2024-01-11T09:33:45;-3273.50;79.60
38514;DHT22;24282;48.400;10.808;2024-01-11T09:36:12;-3273.50;79.20
38514;DHT22;24282;48.400;10.808;2024-01-11T09:38:38;-3273.50;79.30
38514;DHT22;24282;48.400;10.808;2024-01-11T09:41:08;-3273.60;79.40
38514;DHT22;24282;48.400;10.808;2024-01-11T09:43:35;-3273.70;79.70
38514;DHT22;24282;48.400;10.808;2024-01-11T09:46:05;-3273.70;79.20
38514;DHT22;24282;48.400;10.808;2024-01-11T09:48:33;-3273.70;79.10
38514;DHT22;24282;48.400;10.808;2024-01-11T09:51:01;-3273.70;79.10
38514;DHT22;24282;48.400;10.808;2024-01-11T09:53:30;-3273.80;78.80
38514;DHT22;24282;48.400;10.808;2024-01-11T09:56:00;-3273.80;78.70
38514;DHT22;24282;48.400;10.808;2024-01-11T09:58:26;-3273.90;78.60
38514;DHT22;24282;48.400;10.808;2024-01-11T10:00:55;-3273.90;78.10
38514;DHT22;24282;48.400;10.808;2024-01-11T10:03:23;-3273.90;78.20
38514;DHT22;24282;48.400;10.808;2024-01-11T10:05:50;-3273.90;78.40
38514;DHT22;24282;48.400;10.808;2024-01-11T10:08:21;-3273.90;78.50
38514;DHT22;24282;48.400;10.808;2024-01-11T10:10:48;-3273.90;78.60
38514;DHT22;24282;48.400;10.808;2024-01-11T10:13:15;-3274.00;78.60
38514;DHT22;24282;48.400;10.808;2024-01-11T10:15:42;-3274.00;78.50
38514;DHT22;24282;48.400;10.808;2024-01-11T10:18:08;-3274.00;78.70
38514;DHT22;24282;48.400;10.808;2024-01-11T10:20:34;-3274.10;78.90
38514;DHT22;24282;48.400;10.808;2024-01-11T10:23:02;-3274.10;78.90
38514;DHT22;24282;48.400;10.808;2024-01-11T10:25:27;-3274.10;79.10
38514;DHT22;24282;48.400;10.808;2024-01-11T10:27:54;-3274.20;79.30
38514;DHT22;24282;48.400;10.808;2024-01-11T10:30:20;-3274.20;79.00
38514;DHT22;24282;48.400;10.808;2024-01-11T10:32:49;-3274.30;78.90
38514;DHT22;24282;48.400;10.808;2024-01-11T10:35:15;-3274.30;78.50
38514;DHT22;24282;48.400;10.808;2024-01-11T10:37:44;-3274.30;78.30
38514;DHT22;24282;48.400;10.808;2024-01-11T10:40:10;-3274.30;78.40
38514;DHT22;24282;48.400;10.808;2024-01-11T10:42:44;-3274.30;78.10
38514;DHT22;24282;48.400;10.808;2024-01-11T10:45:17;-3274.30;78.10
38514;DHT22;24282;48.400;10.808;2024-01-11T10:48:01;-3274.30;78.40
38514;DHT22;24282;48.400;10.808;2024-01-11T10:50:30;-3274.30;78.80
38514;DHT22;24282;48.400;10.808;2024-01-11T10:55:46;-3274.30;77.60
38514;DHT22;24282;48.400;10.808;2024-01-11T10:58:13;-3274.30;78.20
38514;DHT22;24282;48.400;10.808;2024-01-11T11:00:41;-3274.20;78.10
38514;DHT22;24282;48.400;10.808;2024-01-11T11:03:07;-3274.30;77.90
38514;DHT22;24282;48.400;10.808;2024-01-11T11:05:35;-3274.20;77.60
38514;DHT22;24282;48.400;10.808;2024-01-11T11:08:01;-3274.20;78.60
38514;DHT22;24282;48.400;10.808;2024-01-11T11:10:28;-3274.20;78.40
38514;DHT22;24282;48.400;10.808;2024-01-11T11:12:55;-3274.20;78.70
38514;DHT22;24282;48.400;10.808;2024-01-11T11:15:27;-3274.10;79.20
38514;DHT22;24282;48.400;10.808;2024-01-11T11:17:53;-3274.20;79.50
38514;DHT22;24282;48.400;10.808;2024-01-11T11:20:19;-3274.20;79.60
38514;DHT22;24282;48.400;10.808;2024-01-11T11:23:02;-3274.30;79.20
38514;DHT22;24282;48.400;10.808;2024-01-11T11:25:30;-3274.30;79.30
38514;DHT22;24282;48.400;10.808;2024-01-11T11:27:55;-3274.30;79.10
38514;DHT22;24282;48.400;10.808;2024-01-11T11:30:21;-3274.40;79.20
38514;DHT22;24282;48.400;10.808;2024-01-11T11:32:47;-3274.40;78.90
38514;DHT22;24282;48.400;10.808;2024-01-11T11:35:13;-3274.40;78.80
38514;DHT22;24282;48.400;10.808;2024-01-11T11:37:39;-3274.50;78.80
38514;DHT22;24282;48.400;10.808;2024-01-11T11:40:09;-3274.50;78.80
38514;DHT22;24282;48.400;10.808;2024-01-11T11:42:39;-3274.60;79.00
38514;DHT22;24282;48.400;10.808;2024-01-11T11:45:07;-3274.70;79.20
38514;DHT22;24282;48.400;10.808;2024-01-11T11:47:36;-3274.70;79.10
38514;DHT22;24282;48.400;10.808;2024-01-11T11:50:09;-3274.70;78.70
38514;DHT22;24282;48.400;10.808;2024-01-11T11:52:40;-3274.70;78.40
38514;DHT22;24282;48.400;10.808;2024-01-11T11:55:08;-3274.70;78.60
38514;DHT22;24282;48.400;10.808;2024-01-11T11:57:34;-3274.80;78.90
38514;DHT22;24282;48.400;10.808;2024-01-11T12:00:01;-3274.80;78.60
38514;DHT22;24282;48.400;10.808;2024-01-11T12:02:38;-3274.90;78.60
38514;DHT22;24282;48.400;10.808;2024-01-11T12:05:04;-3274.90;78.50
38514;DHT22;24282;48.400;10.808;2024-01-11T12:07:30;-3275.00;78.40
38514;DHT22;24282;48.400;10.808;2024-01-11T12:09:56;-3275.00;78.40
38514;DHT22;24282;48.400;10.808;2024-01-11T12:12:22;-3275.00;78.50
38514;DHT22;24282;48.400;10.808;2024-01-11T12:14:48;-3275.00;78.20
38514;DHT22;24282;48.400;10.808;2024-01-11T12:17:18;-3275.00;78.10
38514;DHT22;24282;48.400;10.808;2024-01-11T12:19:43;-3275.20;78.00
38514;DHT22;24282;48.400;10.808;2024-01-11T12:22:09;-3275.20;77.50
38514;DHT22;24282;48.400;10.808;2024-01-11T12:24:35;-3275.20;77.30
38514;DHT22;24282;48.400;10.808;2024-01-11T12:27:01;-3275.20;77.50
38514;DHT22;24282;48.400;10.808;2024-01-11T12:29:30;-3275.20;77.70
38514;DHT22;24282;48.400;10.808;2024-01-11T12:31:57;-3275.20;78.00
38514;DHT22;24282;48.400;10.808;2024-01-11T12:34:25;-3275.30;77.70
38514;DHT22;24282;48.400;10.808;2024-01-11T12:36:52;-3275.40;77.40
38514;DHT22;24282;48.400;10.808;2024-01-11T12:39:19;-3275.50;77.20
38514;DHT22;24282;48.400;10.808;2024-01-11T12:41:49;-3275.60;76.70
38514;DHT22;24282;48.400;10.808;2024-01-11T12:44:15;-3275.70;76.30
38514;DHT22;24282;48.400;10.808;2024-01-11T12:46:42;-3275.90;76.20
38514;DHT22;24282;48.400;10.808;2024-01-11T12:49:10;-3275.90;75.70
38514;DHT22;24282;48.400;10.808;2024-01-11T12:51:36;-3275.90;75.70
38514;DHT22;24282;48.400;10.808;2024-01-11T12:54:02;-3276.00;75.60
38514;DHT22;24282;48.400;10.808;2024-01-11T12:56:30;-3276.00;75.60
38514;DHT22;24282;48.400;10.808;2024-01-11T12:59:08;-3276.10;75.50
38514;DHT22;24282;48.400;10.808;2024-01-11T13:01:36;-3276.10;75.40
38514;DHT22;24282;48.400;10.808;2024-01-11T13:04:02;-3276.10;75.60
38514;DHT22;24282;48.400;10.808;2024-01-11T13:06:29;-3276.10;75.40
38514;DHT22;24282;48.400;10.808;2024-01-11T13:08:56;-3276.10;75.20
38514;DHT22;24282;48.400;10.808;2024-01-11T13:11:22;-3276.10;75.10
38514;DHT22;24282;48.400;10.808;2024-01-11T13:13:50;-3276.20;75.10
38514;DHT22;24282;48.400;10.808;2024-01-11T13:16:17;-3276.20;75.20
38514;DHT22;24282;48.400;10.808;2024-01-11T13:18:44;-3276.20;75.20
38514;DHT22;24282;48.400;10.808;2024-01-11T13:21:10;-3276.20;75.00
38514;DHT22;24282;48.400;10.808;2024-01-11T13:23:38;-3276.20;74.90
38514;DHT22;24282;48.400;10.808;2024-01-11T13:26:05;-3276.20;74.80
38514;DHT22;24282;48.400;10.808;2024-01-11T13:28:32;-3276.20;74.90
38514;DHT22;24282;48.400;10.808;2024-01-11T13:30:59;-3276.10;74.90
38514;DHT22;24282;48.400;10.808;2024-01-11T13:33:25;-3276.10;75.00
38514;DHT22;24282;48.400;10.808;2024-01-11T13:35:51;-3276.10;75.00
38514;DHT22;24282;48.400;10.808;2024-01-11T13:38:16;-3276.10;75.10
38514;DHT22;24282;48.400;10.808;2024-01-11T13:40:42;-3276.00;75.00
38514;DHT22;24282;48.400;10.808;2024-01-11T13:43:09;-3276.00;75.00
38514;DHT22;24282;48.400;10.808;2024-01-11T13:45:35;-3275.90;75.30
38514;DHT22;24282;48.400;10.808;2024-01-11T13:48:02;-3275.90;75.50
38514;DHT22;24282;48.400;10.808;2024-01-11T13:50:29;-3275.90;75.60
38514;DHT22;24282;48.400;10.808;2024-01-11T13:52:54;-3275.90;75.50
38514;DHT22;24282;48.400;10.808;2024-01-11T13:55:20;-3275.80;75.30
38514;DHT22;24282;48.400;10.808;2024-01-11T13:57:48;-3275.70;75.60
38514;DHT22;24282;48.400;10.808;2024-01-11T14:00:14;-3275.70;76.10
38514;DHT22;24282;48.400;10.808;2024-01-11T14:02:43;-3275.60;76.00
38514;DHT22;24282;48.400;10.808;2024-01-11T14:05:11;-3275.60;76.10
38514;DHT22;24282;48.400;10.808;2024-01-11T14:07:42;-3275.60;76.00
38514;DHT22;24282;48.400;10.808;2024-01-11T14:10:10;-3275.50;76.40
38514;DHT22;24282;48.400;10.808;2024-01-11T14:12:39;-3275.50;76.20
38514;DHT22;24282;48.400;10.808;2024-01-11T14:15:06;-3275.50;76.20
38514;DHT22;24282;48.400;10.808;2024-01-11T14:17:33;-3275.40;76.60
38514;DHT22;24282;48.400;10.808;2024-01-11T14:19:59;-3275.40;76.60
38514;DHT22;24282;48.400;10.808;2024-01-11T14:22:25;-3275.40;76.40
38514;DHT22;24282;48.400;10.808;2024-01-11T14:24:51;-3275.40;76.40
38514;DHT22;24282;48.400;10.808;2024-01-11T14:27:17;-3275.40;76.80
38514;DHT22;24282;48.400;10.808;2024-01-11T14:29:43;-3275.40;77.30
38514;DHT22;24282;48.400;10.808;2024-01-11T14:32:08;-3275.40;77.40
38514;DHT22;24282;48.400;10.808;2024-01-11T14:34:34;-3275.50;82.10